createdAt,value
2022-11-17T00:00:39.702Z,13.13
2022-11-17T00:03:06.070Z,13.27
2022-11-17T00:05:32.497Z,12.77
2022-11-17T00:07:58.927Z,14.43
2022-11-17T00:10:25.378Z,13.10
2022-11-17T00:13:10.543Z,13.85
2022-11-17T00:15:37.006Z,14.45
2022-11-17T00:18:26.812Z,14.45
2022-11-17T00:21:11.837Z,16.17
2022-11-17T00:23:47.321Z,14.60
2022-11-17T00:26:25.016Z,15.77
2022-11-17T00:28:53.444Z,15.30
2022-11-17T00:31:39.104Z,15.70
2022-11-17T00:34:06.323Z,13.35
2022-11-17T00:36:38.476Z,13.85
2022-11-17T00:39:05.795Z,14.20
2022-11-17T00:41:32.250Z,14.30
2022-11-17T00:43:58.795Z,14.30
2022-11-17T00:46:25.674Z,15.48
2022-11-17T00:48:52.126Z,16.25
2022-11-17T00:51:19.112Z,13.57
2022-11-17T00:53:46.466Z,13.95
2022-11-17T00:56:13.329Z,14.23
2022-11-17T00:58:39.712Z,14.23
2022-11-17T01:01:06.676Z,15.57
2022-11-17T01:03:35.824Z,18.77
2022-11-17T01:06:07.366Z,19.08
2022-11-17T01:08:34.532Z,18.08
2022-11-17T01:11:05.920Z,16.45
2022-11-17T01:13:32.646Z,14.45
2022-11-17T01:16:11.903Z,13.52
2022-11-17T01:18:39.139Z,14.68
2022-11-17T01:21:11.630Z,18.55
2022-11-17T01:23:41.228Z,17.27
2022-11-17T01:26:13.212Z,17.20
2022-11-17T01:28:41.455Z,20.58
2022-11-17T01:31:11.344Z,15.32
2022-11-17T01:33:38.324Z,19.45
2022-11-17T01:36:07.891Z,16.92
2022-11-17T01:38:34.506Z,18.48
2022-11-17T01:41:02.573Z,18.52
2022-11-17T01:43:40.935Z,20.75
2022-11-17T01:46:26.333Z,15.30
2022-11-17T01:48:57.259Z,15.13
2022-11-17T01:51:24.018Z,14.10
2022-11-17T01:53:51.269Z,14.68
2022-11-17T01:56:24.616Z,16.05
2022-11-17T01:58:58.243Z,12.40
2022-11-17T02:01:24.753Z,15.45
2022-11-17T02:03:51.590Z,11.70
2022-11-17T02:06:28.655Z,19.67
2022-11-17T02:08:55.157Z,15.48
2022-11-17T02:11:22.861Z,15.40
2022-11-17T02:13:53.145Z,15.88
2022-11-17T02:16:19.615Z,17.55
2022-11-17T02:18:47.385Z,16.17
2022-11-17T02:21:22.664Z,19.63
2022-11-17T02:24:20.449Z,18.23
2022-11-17T02:27:22.260Z,15.00
2022-11-17T02:32:58.178Z,26.98
2022-11-17T02:35:27.653Z,18.60
2022-11-17T02:38:15.138Z,15.88
2022-11-17T02:40:48.170Z,17.95
2022-11-17T02:43:38.792Z,21.25
2022-11-17T02:46:16.291Z,20.02
2022-11-17T02:48:51.848Z,21.48
2022-11-17T02:51:23.618Z,18.73
2022-11-17T02:53:53.369Z,18.15
2022-11-17T02:56:20.089Z,20.98
2022-11-17T02:58:50.728Z,18.48
2022-11-17T03:01:17.184Z,21.08
2022-11-17T03:04:05.420Z,17.23
2022-11-17T03:06:51.713Z,18.52
2022-11-17T03:09:39.333Z,19.05
2022-11-17T03:12:22.011Z,17.67
2022-11-17T03:15:27.997Z,16.50
2022-11-17T03:18:08.119Z,15.32
2022-11-17T03:20:56.026Z,15.20
2022-11-17T03:23:36.751Z,14.38
2022-11-17T03:26:09.949Z,16.10
2022-11-17T03:28:36.992Z,16.05
2022-11-17T03:31:07.028Z,18.98
2022-11-17T03:33:35.100Z,30.02
2022-11-17T03:36:06.169Z,99.20
2022-11-17T03:38:37.500Z,45.05
2022-11-17T03:41:07.106Z,17.65
2022-11-17T03:43:34.018Z,50.45
2022-11-17T03:46:09.241Z,53.33
2022-11-17T03:48:42.843Z,78.35
2022-11-17T03:51:25.521Z,50.72
2022-11-17T03:53:53.853Z,75.38
2022-11-17T03:56:54.097Z,21.65
2022-11-17T03:59:30.554Z,18.20
2022-11-17T04:01:57.434Z,16.60
2022-11-17T04:04:24.064Z,16.05
2022-11-17T04:06:53.092Z,18.75
2022-11-17T04:09:24.219Z,16.30
2022-11-17T04:12:09.607Z,17.13
2022-11-17T04:14:54.514Z,15.85
2022-11-17T04:17:21.220Z,14.02
2022-11-17T04:19:48.606Z,16.83
2022-11-17T04:22:14.992Z,16.00
2022-11-17T04:24:41.382Z,11.57
2022-11-17T04:27:26.968Z,12.07
2022-11-17T04:29:53.339Z,14.52
2022-11-17T04:32:19.747Z,13.60
2022-11-17T04:34:46.123Z,12.05
2022-11-17T04:37:17.382Z,15.32
2022-11-17T04:39:45.689Z,13.52
2022-11-17T04:42:12.242Z,12.98
2022-11-17T04:44:38.691Z,15.27
2022-11-17T04:47:06.834Z,16.17
2022-11-17T04:49:33.319Z,15.20
2022-11-17T04:52:00.375Z,17.70
2022-11-17T04:54:26.816Z,15.85
2022-11-17T04:56:54.591Z,14.35
2022-11-17T04:59:21.292Z,14.25
2022-11-17T05:01:48.026Z,13.55
2022-11-17T05:04:35.708Z,14.88
2022-11-17T05:07:02.201Z,12.52
2022-11-17T05:09:28.627Z,10.73
2022-11-17T05:12:13.626Z,13.88
2022-11-17T05:14:40.120Z,13.93
2022-11-17T05:17:10.023Z,13.30
2022-11-17T05:19:48.196Z,12.57
2022-11-17T05:22:41.336Z,39.33
2022-11-17T05:25:09.196Z,13.88
2022-11-17T05:27:36.242Z,14.90
2022-11-17T05:30:05.923Z,16.17
2022-11-17T05:32:32.630Z,15.23
2022-11-17T05:34:59.051Z,13.65
2022-11-17T05:37:25.437Z,14.32
2022-11-17T05:39:51.847Z,16.92
2022-11-17T05:42:18.260Z,18.35
2022-11-17T05:44:44.701Z,16.27
2022-11-17T05:47:11.116Z,18.25
2022-11-17T05:49:37.927Z,17.35
2022-11-17T05:52:04.467Z,20.13
2022-11-17T05:54:31.186Z,17.23
2022-11-17T05:57:08.540Z,47.85
2022-11-17T05:59:40.286Z,78.32
2022-11-17T06:02:21.281Z,20.10
2022-11-17T06:04:49.400Z,29.77
2022-11-17T06:07:17.913Z,22.73
2022-11-17T06:09:45.896Z,39.70
2022-11-17T06:12:12.450Z,29.10
2022-11-17T06:14:39.702Z,20.83
2022-11-17T06:17:13.479Z,22.42
2022-11-17T06:19:46.518Z,20.58
2022-11-17T06:24:45.068Z,23.30
2022-11-17T06:27:15.793Z,23.00
2022-11-17T06:29:44.978Z,18.75
2022-11-17T06:32:17.364Z,21.23
2022-11-17T06:34:51.983Z,17.85
2022-11-17T06:37:21.656Z,18.92
2022-11-17T06:39:48.064Z,15.07
2022-11-17T06:42:14.430Z,15.75
2022-11-17T06:44:40.885Z,17.48
2022-11-17T06:47:07.270Z,12.95
2022-11-17T06:49:33.679Z,11.85
2022-11-17T06:52:00.127Z,9.93
2022-11-17T06:54:26.594Z,10.07
2022-11-17T06:56:53.368Z,7.75
2022-11-17T06:59:19.750Z,10.40
2022-11-17T07:01:46.177Z,8.35
2022-11-17T07:04:12.675Z,9.90
2022-11-17T07:06:39.433Z,16.42
2022-11-17T07:09:05.898Z,8.30
2022-11-17T07:11:35.786Z,9.45
2022-11-17T07:14:02.198Z,7.00
2022-11-17T07:16:30.640Z,6.45
2022-11-17T07:18:59.180Z,6.65
2022-11-17T07:21:25.726Z,5.43
2022-11-17T07:23:52.365Z,5.70
2022-11-17T07:26:18.759Z,6.80
2022-11-17T07:28:45.147Z,8.73
2022-11-17T07:31:11.555Z,6.95
2022-11-17T07:33:38.032Z,8.73
2022-11-17T07:36:11.615Z,6.75
2022-11-17T07:38:40.098Z,7.10
2022-11-17T07:41:08.781Z,7.70
2022-11-17T07:43:36.271Z,9.90
2022-11-17T07:46:12.479Z,9.20
2022-11-17T07:48:39.815Z,6.82
2022-11-17T07:51:06.976Z,8.18
2022-11-17T07:53:35.060Z,8.00
2022-11-17T07:56:10.149Z,11.63
2022-11-17T07:58:37.751Z,8.50
2022-11-17T08:01:15.436Z,8.98
2022-11-17T08:03:44.389Z,9.93
2022-11-17T08:06:11.010Z,9.10
2022-11-17T08:08:38.782Z,9.20
2022-11-17T08:11:10.656Z,11.38
2022-11-17T08:13:38.357Z,10.35
2022-11-17T08:16:06.330Z,10.30
2022-11-17T08:18:33.661Z,7.57
2022-11-17T08:21:02.345Z,10.23
2022-11-17T08:23:28.750Z,7.72
2022-11-17T08:25:55.155Z,10.52
2022-11-17T08:28:22.405Z,13.18
2022-11-17T08:30:48.860Z,10.07
2022-11-17T08:33:15.332Z,10.23
2022-11-17T08:35:41.782Z,10.32
2022-11-17T08:38:11.472Z,12.38
2022-11-17T08:40:38.560Z,11.50
2022-11-17T08:43:05.086Z,12.35
2022-11-17T08:45:31.588Z,7.68
2022-11-17T08:47:58.359Z,10.48
2022-11-17T08:50:25.358Z,7.80
2022-11-17T08:52:52.711Z,10.65
2022-11-17T08:55:19.180Z,10.35
2022-11-17T08:57:45.658Z,7.55
2022-11-17T09:00:12.542Z,4.20
2022-11-17T09:02:38.990Z,6.22
2022-11-17T09:05:06.141Z,7.22
2022-11-17T09:07:35.020Z,5.70
2022-11-17T09:10:03.415Z,7.40
2022-11-17T09:12:29.815Z,5.03
2022-11-17T09:14:56.174Z,5.95
2022-11-17T09:17:22.882Z,5.50
2022-11-17T09:19:49.365Z,3.30
2022-11-17T09:22:15.788Z,6.55
2022-11-17T09:24:42.215Z,3.88
2022-11-17T09:27:08.715Z,5.38
2022-11-17T09:29:35.133Z,4.28
2022-11-17T09:32:01.847Z,3.78
2022-11-17T09:34:29.266Z,4.72
2022-11-17T09:36:55.790Z,4.97
2022-11-17T09:39:22.178Z,5.28
2022-11-17T09:41:51.424Z,4.32
2022-11-17T09:44:39.549Z,1.38
2022-11-17T09:47:28.915Z,1.33
2022-11-17T09:50:26.485Z,1.77
2022-11-17T09:53:01.350Z,3.50
2022-11-17T09:55:34.130Z,1.75
2022-11-17T09:58:48.056Z,8.68
2022-11-17T10:01:23.803Z,3.20
2022-11-17T10:03:51.489Z,2.10
2022-11-17T10:06:22.888Z,3.22
2022-11-17T10:11:32.463Z,1.48
2022-11-17T10:14:07.890Z,0.80
2022-11-17T10:16:35.767Z,3.58
2022-11-17T10:19:29.737Z,2.80
2022-11-17T10:22:02.397Z,1.15
2022-11-17T10:24:38.115Z,6.40
2022-11-17T10:27:18.219Z,2.35
2022-11-17T10:30:13.817Z,1.65
2022-11-17T10:32:52.296Z,1.00
2022-11-17T10:35:32.297Z,2.22
2022-11-17T10:38:20.145Z,1.30
2022-11-17T10:40:50.224Z,0.57
2022-11-17T10:43:25.604Z,2.03
2022-11-17T10:46:18.488Z,2.92
2022-11-17T10:49:33.657Z,1.58
2022-11-17T10:52:17.579Z,1.67
2022-11-17T10:54:44.691Z,3.90
2022-11-17T10:57:20.198Z,1.77
2022-11-17T10:59:57.167Z,3.28
2022-11-17T11:02:31.619Z,2.03
2022-11-17T11:05:07.042Z,2.88
2022-11-17T11:07:33.747Z,2.25
2022-11-17T11:10:13.232Z,1.88
2022-11-17T11:12:45.546Z,3.17
2022-11-17T11:15:23.995Z,3.13
2022-11-17T11:17:51.480Z,5.43
2022-11-17T11:20:24.072Z,4.40
2022-11-17T11:23:01.262Z,3.53
2022-11-17T11:25:51.877Z,3.28
2022-11-17T11:28:54.309Z,3.37
2022-11-17T11:31:35.982Z,5.13
2022-11-17T11:34:27.465Z,4.32
2022-11-17T11:39:46.686Z,4.57
2022-11-17T11:42:51.768Z,4.55
2022-11-17T11:45:30.252Z,3.65
2022-11-17T11:48:05.683Z,3.80
2022-11-17T11:50:41.494Z,6.85
2022-11-17T11:53:18.990Z,4.05
2022-11-17T11:55:49.432Z,7.32
2022-11-17T11:58:24.089Z,4.43
2022-11-17T12:00:55.321Z,6.60
2022-11-17T12:06:29.747Z,7.82
2022-11-17T12:09:06.143Z,6.15
2022-11-17T12:11:52.476Z,6.72
2022-11-17T12:14:19.452Z,7.40
2022-11-17T12:16:48.021Z,8.73
2022-11-17T12:19:50.835Z,10.13
2022-11-17T12:22:29.517Z,6.90
2022-11-17T12:24:59.395Z,8.30
2022-11-17T12:27:35.085Z,6.93
2022-11-17T12:30:33.427Z,11.35
2022-11-17T12:33:01.232Z,8.73
2022-11-17T12:35:34.370Z,7.07
2022-11-17T12:38:19.965Z,7.97
2022-11-17T12:40:48.644Z,7.80
2022-11-17T12:43:15.037Z,9.25
2022-11-17T12:45:53.597Z,5.28
2022-11-17T12:48:33.498Z,6.82
2022-11-17T12:51:39.706Z,10.43
2022-11-17T12:54:25.943Z,6.40
2022-11-17T12:57:03.920Z,6.97
2022-11-17T12:59:46.472Z,5.18
2022-11-17T13:02:30.708Z,7.10
2022-11-17T13:05:10.784Z,8.05
2022-11-17T13:07:37.243Z,5.75
2022-11-17T13:10:03.946Z,7.55
2022-11-17T13:12:33.034Z,7.60
2022-11-17T13:15:05.159Z,8.15
2022-11-17T13:17:42.770Z,6.55
2022-11-17T13:20:28.481Z,6.22
2022-11-17T13:23:06.697Z,7.35
2022-11-17T13:25:34.251Z,4.97
2022-11-17T13:28:04.713Z,8.23
2022-11-17T13:30:32.557Z,5.22
2022-11-17T13:33:02.165Z,8.77
2022-11-17T13:35:34.736Z,8.65
2022-11-17T13:38:12.013Z,6.88
2022-11-17T13:40:41.546Z,6.40
2022-11-17T13:43:12.790Z,8.32
2022-11-17T13:48:06.826Z,6.72
2022-11-17T13:50:35.596Z,8.10
2022-11-17T13:53:11.256Z,12.30
2022-11-17T13:55:44.427Z,12.02
2022-11-17T13:58:36.956Z,8.23
2022-11-17T14:01:03.959Z,6.88
2022-11-17T14:03:41.881Z,9.18
2022-11-17T14:06:13.599Z,6.47
2022-11-17T14:08:42.975Z,9.57
2022-11-17T14:11:12.218Z,7.00
2022-11-17T14:13:44.782Z,7.70
2022-11-17T14:16:21.683Z,7.63
2022-11-17T14:18:57.104Z,9.23
2022-11-17T14:21:23.552Z,8.70
2022-11-17T14:24:01.758Z,6.82
2022-11-17T14:26:28.881Z,6.75
2022-11-17T14:28:58.062Z,7.18
2022-11-17T14:31:24.500Z,9.10
2022-11-17T14:33:50.900Z,9.05
2022-11-17T14:36:17.968Z,8.52
2022-11-17T14:38:45.452Z,12.10
2022-11-17T14:41:15.005Z,8.90
2022-11-17T14:43:41.453Z,9.18
2022-11-17T14:46:18.756Z,9.52
2022-11-17T14:48:45.428Z,9.15
2022-11-17T14:51:11.895Z,6.90
2022-11-17T14:53:41.887Z,10.70
2022-11-17T14:56:09.674Z,8.18
2022-11-17T14:58:36.275Z,10.65
2022-11-17T15:01:17.008Z,8.13
2022-11-17T15:03:44.067Z,10.05
2022-11-17T15:06:15.266Z,7.57
2022-11-17T15:08:45.088Z,9.60
2022-11-17T15:11:17.186Z,5.78
2022-11-17T15:13:43.976Z,4.88
2022-11-17T15:16:10.724Z,7.57
2022-11-17T15:18:37.223Z,7.40
2022-11-17T15:21:09.768Z,7.50
2022-11-17T15:23:38.497Z,5.57
2022-11-17T15:26:06.569Z,9.18
2022-11-17T15:28:33.286Z,8.10
2022-11-17T15:30:59.908Z,11.90
2022-11-17T15:33:26.364Z,11.52
2022-11-17T15:36:03.321Z,13.77
2022-11-17T15:38:31.373Z,9.63
2022-11-17T15:40:57.887Z,10.93
2022-11-17T15:43:28.996Z,10.55
2022-11-17T15:46:07.486Z,9.90
2022-11-17T15:48:35.224Z,7.05
2022-11-17T15:51:05.388Z,14.50
2022-11-17T15:53:34.360Z,8.43
2022-11-17T15:56:33.507Z,12.10
2022-11-17T15:59:03.121Z,19.02
2022-11-17T16:01:33.734Z,11.15
2022-11-17T16:04:05.914Z,15.98
2022-11-17T16:06:34.741Z,8.57
2022-11-17T16:09:01.340Z,8.27
2022-11-17T16:11:28.107Z,7.38
2022-11-17T16:13:55.814Z,6.78
2022-11-17T16:16:23.669Z,9.65
2022-11-17T16:18:50.166Z,11.48
2022-11-17T16:21:18.855Z,9.70
2022-11-17T16:23:47.765Z,10.25
2022-11-17T16:26:16.388Z,11.30
2022-11-17T16:28:42.909Z,15.77
2022-11-17T16:31:16.846Z,5.50
2022-11-17T16:33:50.564Z,12.15
2022-11-17T16:36:18.581Z,7.43
2022-11-17T16:39:02.146Z,9.23
2022-11-17T16:41:32.412Z,5.90
2022-11-17T16:43:59.614Z,10.00
2022-11-17T16:46:29.366Z,15.98
2022-11-17T16:48:57.253Z,11.25
2022-11-17T16:51:24.716Z,13.68
2022-11-17T16:53:56.127Z,12.20
2022-11-17T16:56:22.967Z,8.32
2022-11-17T16:58:50.187Z,8.57
2022-11-17T17:01:22.195Z,7.47
2022-11-17T17:03:48.637Z,10.27
2022-11-17T17:06:17.283Z,10.93
2022-11-17T17:08:44.689Z,11.35
2022-11-17T17:11:13.777Z,10.75
2022-11-17T17:13:41.227Z,11.63
2022-11-17T17:16:10.260Z,10.38
2022-11-17T17:18:37.107Z,9.25
2022-11-17T17:21:04.076Z,7.57
2022-11-17T17:23:31.297Z,11.93
2022-11-17T17:26:16.735Z,7.40
2022-11-17T17:28:44.636Z,10.95
2022-11-17T17:31:16.682Z,8.63
2022-11-17T17:33:46.210Z,11.35
2022-11-17T17:36:24.382Z,12.18
2022-11-17T17:38:55.883Z,14.13
2022-11-17T17:41:24.885Z,9.52
2022-11-17T17:44:02.295Z,11.93
2022-11-17T17:46:29.866Z,15.60
2022-11-17T17:48:57.463Z,9.60
2022-11-17T17:51:25.651Z,6.95
2022-11-17T17:53:54.156Z,14.02
2022-11-17T17:56:21.986Z,13.98
2022-11-17T17:58:48.898Z,6.45
2022-11-17T18:01:24.463Z,5.95
2022-11-17T18:03:53.616Z,5.63
2022-11-17T18:06:21.970Z,10.45
2022-11-17T18:08:48.945Z,10.43
2022-11-17T18:11:18.577Z,10.85
2022-11-17T18:13:48.440Z,10.15
2022-11-17T18:16:23.584Z,9.82
2022-11-17T18:18:54.975Z,9.18
2022-11-17T18:21:21.460Z,7.97
2022-11-17T18:23:47.860Z,8.07
2022-11-17T18:26:16.364Z,7.72
2022-11-17T18:28:44.844Z,6.22
2022-11-17T18:31:11.301Z,5.47
2022-11-17T18:33:37.877Z,7.88
2022-11-17T18:36:09.179Z,5.15
2022-11-17T18:41:08.359Z,6.78
2022-11-17T18:43:35.632Z,6.70
2022-11-17T18:46:07.029Z,5.85
2022-11-17T18:48:35.215Z,9.55
2022-11-17T18:51:19.033Z,9.77
2022-11-17T18:53:46.871Z,7.47
2022-11-17T18:56:15.781Z,5.75
2022-11-17T18:58:42.982Z,9.93
2022-11-17T19:01:18.298Z,8.10
2022-11-17T19:03:47.786Z,5.82
2022-11-17T19:06:16.502Z,8.32
2022-11-17T19:08:43.056Z,8.77
2022-11-17T19:11:10.803Z,4.25
2022-11-17T19:13:39.196Z,9.43
2022-11-17T19:16:08.203Z,7.38
2022-11-17T19:18:35.734Z,8.55
2022-11-17T19:21:16.534Z,9.40
2022-11-17T19:23:51.009Z,7.07
2022-11-17T19:26:33.321Z,4.50
2022-11-17T19:29:02.854Z,3.90
2022-11-17T19:31:29.703Z,4.88
2022-11-17T19:33:57.714Z,7.47
2022-11-17T19:36:32.210Z,4.75
2022-11-17T19:39:00.918Z,5.07
2022-11-17T19:41:30.433Z,5.40
2022-11-17T19:43:58.624Z,5.50
2022-11-17T19:46:26.975Z,4.82
2022-11-17T19:48:54.581Z,7.00
2022-11-17T19:51:23.656Z,3.17
2022-11-17T19:53:53.634Z,3.22
2022-11-17T19:56:21.094Z,3.50
2022-11-17T19:58:48.664Z,5.40
2022-11-17T20:01:17.345Z,8.88
2022-11-17T20:03:44.230Z,3.83
2022-11-17T20:06:12.637Z,5.68
2022-11-17T20:08:39.522Z,4.05
2022-11-17T20:11:12.313Z,4.13
2022-11-17T20:13:39.659Z,2.53
2022-11-17T20:16:11.963Z,1.45
2022-11-17T20:18:39.400Z,2.15
2022-11-17T20:21:07.038Z,2.70
2022-11-17T20:23:35.171Z,2.42
2022-11-17T20:26:10.336Z,2.90
2022-11-17T20:28:38.144Z,1.52
2022-11-17T20:31:16.866Z,8.18
2022-11-17T20:33:43.620Z,1.10
2022-11-17T20:36:13.035Z,3.63
2022-11-17T20:38:40.022Z,3.25
2022-11-17T20:41:07.425Z,2.15
2022-11-17T20:43:34.626Z,2.70
2022-11-17T20:46:02.659Z,0.82
2022-11-17T20:48:30.263Z,1.42
2022-11-17T20:50:57.325Z,3.05
2022-11-17T20:53:24.082Z,10.30
2022-11-17T20:55:50.542Z,3.92
2022-11-17T20:58:16.956Z,2.63
2022-11-17T21:00:43.417Z,4.25
2022-11-17T21:03:09.855Z,7.22
2022-11-17T21:05:36.243Z,1.98
2022-11-17T21:08:02.691Z,2.05
2022-11-17T21:10:29.065Z,2.92
2022-11-17T21:12:55.452Z,2.70
2022-11-17T21:15:21.826Z,3.80
2022-11-17T21:18:06.858Z,5.13
2022-11-17T21:20:33.928Z,20.67
2022-11-17T21:23:00.413Z,7.63
2022-11-17T21:25:26.818Z,6.75
2022-11-17T21:27:53.279Z,6.97
2022-11-17T21:30:19.783Z,5.75
2022-11-17T21:32:46.187Z,6.75
2022-11-17T21:35:12.647Z,3.90
2022-11-17T21:37:39.062Z,1.92
2022-11-17T21:40:06.167Z,3.03
2022-11-17T21:42:33.064Z,1.92
2022-11-17T21:44:59.460Z,1.55
2022-11-17T21:47:25.877Z,2.85
2022-11-17T21:49:52.265Z,3.00
2022-11-17T21:52:18.668Z,2.05
2022-11-17T21:54:45.099Z,3.63
2022-11-17T21:57:11.506Z,2.03
2022-11-17T21:59:37.890Z,2.47
2022-11-17T22:02:04.333Z,1.33
2022-11-17T22:04:30.703Z,2.33
2022-11-17T22:06:57.142Z,1.92
2022-11-17T22:09:23.558Z,0.80
2022-11-17T22:11:51.370Z,1.42
2022-11-17T22:14:19.583Z,1.30
2022-11-17T22:16:51.909Z,0.98
2022-11-17T22:19:20.546Z,2.55
2022-11-17T22:21:49.369Z,1.48
2022-11-17T22:24:16.052Z,1.38
2022-11-17T22:26:43.692Z,1.00
2022-11-17T22:29:12.869Z,3.33
2022-11-17T22:31:39.439Z,1.20
2022-11-17T22:34:05.831Z,1.92
2022-11-17T22:36:32.369Z,5.15
2022-11-17T22:38:58.832Z,1.73
2022-11-17T22:41:25.283Z,2.72
2022-11-17T22:43:53.287Z,1.90
2022-11-17T22:46:21.352Z,3.05
2022-11-17T22:48:48.214Z,2.50
2022-11-17T22:51:37.688Z,3.03
2022-11-17T22:54:05.434Z,3.08
2022-11-17T22:56:32.846Z,3.40
2022-11-17T22:58:59.943Z,1.15
2022-11-17T23:01:26.775Z,2.70
2022-11-17T23:03:53.266Z,1.58
2022-11-17T23:06:19.768Z,2.28
2022-11-17T23:08:46.205Z,1.77
2022-11-17T23:11:36.131Z,1.73
2022-11-17T23:13:59.442Z,1.05
2022-11-17T23:16:25.952Z,1.77
2022-11-17T23:18:53.625Z,3.70
2022-11-17T23:21:20.091Z,4.30
2022-11-17T23:23:46.705Z,1.25
2022-11-17T23:26:13.953Z,1.63
2022-11-17T23:28:41.797Z,1.75
2022-11-17T23:31:13.476Z,1.40
2022-11-17T23:33:45.479Z,2.20
2022-11-17T23:36:19.879Z,1.63
2022-11-17T23:38:46.993Z,0.90
2022-11-17T23:41:15.660Z,0.52
2022-11-17T23:43:42.820Z,1.40
2022-11-17T23:46:12.292Z,0.68
2022-11-17T23:48:39.259Z,0.60
2022-11-17T23:51:07.072Z,0.68
2022-11-17T23:53:33.609Z,0.55
2022-11-17T23:56:01.153Z,1.90
2022-11-17T23:58:28.260Z,1.10
